sensor_id;sensor_type;location;lat;lon;timestamp;pressure;altitude;pressure_sealevel;temperature;humidity
78800;BME280;68148;55.328;86.106;2023-10-13T00:00:17;99930.19;;;4.63;100.00
78800;BME280;68148;55.328;86.106;2023-10-13T00:02:43;99922.63;;;4.60;100.00
78800;BME280;68148;55.328;86.106;2023-10-13T00:05:13;99934.06;;;4.59;100.00
78800;BME280;68148;55.328;86.106;2023-10-13T00:07:39;99922.47;;;4.62;100.00
78800;BME280;68148;55.328;86.106;2023-10-13T00:10:05;99924.16;;;4.63;100.00
78800;BME280;68148;55.328;86.106;2023-10-13T00:12:31;99916.53;;;4.69;100.00
78800;BME280;68148;55.328;86.106;2023-10-13T00:14:56;99913.66;;;4.72;100.00
78800;BME280;68148;55.328;86.106;2023-10-13T00:17:23;99914.63;;;4.71;100.00
78800;BME280;68148;55.328;86.106;2023-10-13T00:19:48;99920.69;;;4.62;100.00
78800;BME280;68148;55.328;86.106;2023-10-13T00:22:15;99912.56;;;4.65;100.00
78800;BME280;68148;55.328;86.106;2023-10-13T00:24:42;99915.06;;;4.67;100.00
78800;BME280;68148;55.328;86.106;2023-10-13T00:27:14;99911.31;;;4.69;100.00
78800;BME280;68148;55.328;86.106;2023-10-13T00:29:40;99926.03;;;4.70;100.00
78800;BME280;68148;55.328;86.106;2023-10-13T00:32:05;99920.13;;;4.68;100.00
78800;BME280;68148;55.328;86.106;2023-10-13T00:34:31;99909.28;;;4.63;100.00
78800;BME280;68148;55.328;86.106;2023-10-13T00:36:57;99919.59;;;4.65;100.00
78800;BME280;68148;55.328;86.106;2023-10-13T00:39:23;99921.38;;;4.64;100.00
78800;BME280;68148;55.328;86.106;2023-10-13T00:41:49;99927.00;;;4.69;100.00
78800;BME280;68148;55.328;86.106;2023-10-13T00:44:14;99932.06;;;4.71;100.00
78800;BME280;68148;55.328;86.106;2023-10-13T00:46:40;99927.25;;;4.76;100.00
78800;BME280;68148;55.328;86.106;2023-10-13T00:49:07;99931.75;;;4.84;100.00
78800;BME280;68148;55.328;86.106;2023-10-13T00:51:32;99939.59;;;4.84;100.00
78800;BME280;68148;55.328;86.106;2023-10-13T00:54:03;99942.34;;;4.82;100.00
78800;BME280;68148;55.328;86.106;2023-10-13T00:56:29;99945.03;;;4.72;100.00
78800;BME280;68148;55.328;86.106;2023-10-13T00:58:55;99945.84;;;4.73;100.00
78800;BME280;68148;55.328;86.106;2023-10-13T01:01:21;99950.91;;;4.74;100.00
78800;BME280;68148;55.328;86.106;2023-10-13T01:03:49;99967.00;;;4.80;100.00
78800;BME280;68148;55.328;86.106;2023-10-13T01:06:17;99973.75;;;4.82;100.00
78800;BME280;68148;55.328;86.106;2023-10-13T01:08:49;99971.13;;;4.82;100.00
78800;BME280;68148;55.328;86.106;2023-10-13T01:11:14;99983.22;;;4.83;100.00
78800;BME280;68148;55.328;86.106;2023-10-13T01:13:40;99986.53;;;4.85;100.00
78800;BME280;68148;55.328;86.106;2023-10-13T01:16:06;99992.97;;;4.91;100.00
78800;BME280;68148;55.328;86.106;2023-10-13T01:18:33;99994.75;;;4.90;100.00
78800;BME280;68148;55.328;86.106;2023-10-13T01:20:59;99998.31;;;4.99;100.00
78800;BME280;68148;55.328;86.106;2023-10-13T01:23:27;100007.41;;;4.95;100.00
78800;BME280;68148;55.328;86.106;2023-10-13T01:25:53;100019.91;;;5.01;100.00
78800;BME280;68148;55.328;86.106;2023-10-13T01:28:18;100020.06;;;4.99;100.00
78800;BME280;68148;55.328;86.106;2023-10-13T01:30:44;100020.75;;;5.01;100.00
78800;BME280;68148;55.328;86.106;2023-10-13T01:33:10;100020.44;;;5.05;100.00
78800;BME280;68148;55.328;86.106;2023-10-13T01:35:40;100020.88;;;5.00;100.00
78800;BME280;68148;55.328;86.106;2023-10-13T01:38:06;100024.19;;;5.02;100.00
78800;BME280;68148;55.328;86.106;2023-10-13T01:40:31;100024.31;;;5.00;100.00
78800;BME280;68148;55.328;86.106;2023-10-13T01:42:57;100032.97;;;5.01;100.00
78800;BME280;68148;55.328;86.106;2023-10-13T01:45:23;100030.50;;;4.99;100.00
78800;BME280;68148;55.328;86.106;2023-10-13T01:47:49;100034.78;;;5.00;100.00
78800;BME280;68148;55.328;86.106;2023-10-13T01:50:19;100035.59;;;5.01;100.00
78800;BME280;68148;55.328;86.106;2023-10-13T01:52:45;100042.50;;;5.02;100.00
78800;BME280;68148;55.328;86.106;2023-10-13T01:55:13;100043.97;;;5.05;100.00
78800;BME280;68148;55.328;86.106;2023-10-13T01:57:39;100045.78;;;5.04;100.00
78800;BME280;68148;55.328;86.106;2023-10-13T02:00:12;100042.88;;;5.07;100.00
78800;BME280;68148;55.328;86.106;2023-10-13T02:02:38;100048.41;;;5.04;100.00
78800;BME280;68148;55.328;86.106;2023-10-13T02:05:05;100049.22;;;5.05;100.00
78800;BME280;68148;55.328;86.106;2023-10-13T02:07:31;100048.28;;;5.06;100.00
78800;BME280;68148;55.328;86.106;2023-10-13T02:09:57;100066.00;;;5.12;100.00
78800;BME280;68148;55.328;86.106;2023-10-13T02:12:23;100062.41;;;5.13;100.00
78800;BME280;68148;55.328;86.106;2023-10-13T02:14:49;100065.72;;;5.15;100.00
78800;BME280;68148;55.328;86.106;2023-10-13T02:17:16;100066.66;;;5.14;100.00
78800;BME280;68148;55.328;86.106;2023-10-13T02:19:42;100070.66;;;5.18;100.00
78800;BME280;68148;55.328;86.106;2023-10-13T02:22:08;100072.31;;;5.19;100.00
78800;BME280;68148;55.328;86.106;2023-10-13T02:24:33;100077.22;;;5.32;100.00
78800;BME280;68148;55.328;86.106;2023-10-13T02:26:59;100083.22;;;5.42;100.00
78800;BME280;68148;55.328;86.106;2023-10-13T02:29:25;100090.81;;;5.45;100.00
78800;BME280;68148;55.328;86.106;2023-10-13T02:31:55;100093.41;;;5.45;100.00
78800;BME280;68148;55.328;86.106;2023-10-13T02:34:21;100086.94;;;5.39;100.00
78800;BME280;68148;55.328;86.106;2023-10-13T02:36:47;100087.25;;;5.36;100.00
78800;BME280;68148;55.328;86.106;2023-10-13T02:39:13;100102.31;;;5.52;100.00
78800;BME280;68148;55.328;86.106;2023-10-13T02:41:39;100101.28;;;5.45;100.00
78800;BME280;68148;55.328;86.106;2023-10-13T02:44:06;100110.09;;;5.44;99.38
78800;BME280;68148;55.328;86.106;2023-10-13T02:46:33;100118.78;;;5.44;100.00
78800;BME280;68148;55.328;86.106;2023-10-13T02:48:59;100118.34;;;5.49;100.00
78800;BME280;68148;55.328;86.106;2023-10-13T02:51:25;100131.97;;;5.43;100.00
78800;BME280;68148;55.328;86.106;2023-10-13T02:53:51;100129.97;;;5.37;100.00
78800;BME280;68148;55.328;86.106;2023-10-13T02:56:17;100137.91;;;5.45;100.00
78800;BME280;68148;55.328;86.106;2023-10-13T02:58:43;100138.91;;;5.44;100.00
78800;BME280;68148;55.328;86.106;2023-10-13T03:01:09;100133.06;;;5.50;99.27
78800;BME280;68148;55.328;86.106;2023-10-13T03:03:35;100129.47;;;5.51;99.48
78800;BME280;68148;55.328;86.106;2023-10-13T03:06:02;100128.16;;;5.74;99.41
78800;BME280;68148;55.328;86.106;2023-10-13T03:08:28;100132.56;;;5.74;99.05
78800;BME280;68148;55.328;86.106;2023-10-13T03:10:53;100141.84;;;5.86;98.70
78800;BME280;68148;55.328;86.106;2023-10-13T03:13:20;100134.94;;;5.95;98.40
78800;BME280;68148;55.328;86.106;2023-10-13T03:15:45;100143.44;;;6.24;99.11
78800;BME280;68148;55.328;86.106;2023-10-13T03:18:11;100127.44;;;6.27;96.97
78800;BME280;68148;55.328;86.106;2023-10-13T03:20:38;100147.19;;;6.04;95.71
78800;BME280;68148;55.328;86.106;2023-10-13T03:23:04;100155.66;;;6.16;97.36
78800;BME280;68148;55.328;86.106;2023-10-13T03:25:36;100154.81;;;6.15;96.86
78800;BME280;68148;55.328;86.106;2023-10-13T03:28:02;100159.72;;;6.28;97.10
78800;BME280;68148;55.328;86.106;2023-10-13T03:30:28;100164.38;;;6.34;96.91
78800;BME280;68148;55.328;86.106;2023-10-13T03:32:56;100171.56;;;6.32;95.51
78800;BME280;68148;55.328;86.106;2023-10-13T03:35:22;100173.88;;;6.17;95.26
78800;BME280;68148;55.328;86.106;2023-10-13T03:37:52;100165.91;;;6.09;94.74
78800;BME280;68148;55.328;86.106;2023-10-13T03:40:21;100190.16;;;6.11;94.07
78800;BME280;68148;55.328;86.106;2023-10-13T03:42:54;100187.97;;;6.07;94.44
78800;BME280;68148;55.328;86.106;2023-10-13T03:45:20;100205.59;;;6.14;95.15
78800;BME280;68148;55.328;86.106;2023-10-13T03:47:46;100206.38;;;6.42;94.52
78800;BME280;68148;55.328;86.106;2023-10-13T03:50:12;100206.78;;;6.47;94.96
78800;BME280;68148;55.328;86.106;2023-10-13T03:52:37;100225.13;;;6.47;95.00
78800;BME280;68148;55.328;86.106;2023-10-13T03:55:04;100225.50;;;6.52;94.46
78800;BME280;68148;55.328;86.106;2023-10-13T03:57:32;100215.47;;;6.66;93.97
78800;BME280;68148;55.328;86.106;2023-10-13T04:00:00;100226.94;;;6.65;92.62
78800;BME280;68148;55.328;86.106;2023-10-13T04:02:28;100241.97;;;6.45;91.51
78800;BME280;68148;55.328;86.106;2023-10-13T04:04:56;100239.13;;;6.38;92.95
78800;BME280;68148;55.328;86.106;2023-10-13T04:07:24;100255.47;;;6.22;93.68
78800;BME280;68148;55.328;86.106;2023-10-13T04:09:50;100243.75;;;6.26;93.80
78800;BME280;68148;55.328;86.106;2023-10-13T04:12:16;100255.59;;;6.31;93.30
78800;BME280;68148;55.328;86.106;2023-10-13T04:14:43;100255.28;;;6.34;93.52
78800;BME280;68148;55.328;86.106;2023-10-13T04:17:14;100266.78;;;6.23;92.29
78800;BME280;68148;55.328;86.106;2023-10-13T04:19:44;100271.25;;;6.13;91.67
78800;BME280;68148;55.328;86.106;2023-10-13T04:22:10;100267.66;;;6.14;92.18
78800;BME280;68148;55.328;86.106;2023-10-13T04:24:36;100274.97;;;6.10;92.84
78800;BME280;68148;55.328;86.106;2023-10-13T04:27:02;100285.34;;;6.02;91.30
78800;BME280;68148;55.328;86.106;2023-10-13T04:29:28;100296.88;;;6.19;92.15
78800;BME280;68148;55.328;86.106;2023-10-13T04:31:57;100277.94;;;6.25;90.94
78800;BME280;68148;55.328;86.106;2023-10-13T04:34:23;100286.50;;;6.27;90.56
78800;BME280;68148;55.328;86.106;2023-10-13T04:36:52;100290.03;;;6.08;90.12
78800;BME280;68148;55.328;86.106;2023-10-13T04:39:17;100307.00;;;6.04;90.13
78800;BME280;68148;55.328;86.106;2023-10-13T04:41:51;100296.06;;;6.18;91.59
78800;BME280;68148;55.328;86.106;2023-10-13T04:44:44;100303.75;;;6.20;90.03
78800;BME280;68148;55.328;86.106;2023-10-13T04:47:15;100296.94;;;6.37;89.90
78800;BME280;68148;55.328;86.106;2023-10-13T04:52:35;100315.75;;;6.60;88.36
78800;BME280;68148;55.328;86.106;2023-10-13T04:55:07;100314.09;;;6.76;90.15
78800;BME280;68148;55.328;86.106;2023-10-13T04:57:40;100318.84;;;6.91;88.92
78800;BME280;68148;55.328;86.106;2023-10-13T05:00:07;100322.59;;;7.06;88.36
78800;BME280;68148;55.328;86.106;2023-10-13T05:02:33;100325.38;;;7.22;88.60
78800;BME280;68148;55.328;86.106;2023-10-13T05:04:59;100334.63;;;7.26;89.43
78800;BME280;68148;55.328;86.106;2023-10-13T05:07:24;100329.28;;;7.18;86.28
78800;BME280;68148;55.328;86.106;2023-10-13T05:09:50;100344.13;;;7.27;87.07
78800;BME280;68148;55.328;86.106;2023-10-13T05:12:16;100349.38;;;7.27;85.67
78800;BME280;68148;55.328;86.106;2023-10-13T05:14:43;100340.94;;;7.34;84.74
78800;BME280;68148;55.328;86.106;2023-10-13T05:17:08;100354.50;;;7.29;84.13
78800;BME280;68148;55.328;86.106;2023-10-13T05:19:34;100358.69;;;7.40;86.17
78800;BME280;68148;55.328;86.106;2023-10-13T05:22:00;100357.66;;;7.50;84.19
78800;BME280;68148;55.328;86.106;2023-10-13T05:24:26;100362.19;;;7.66;86.10
78800;BME280;68148;55.328;86.106;2023-10-13T05:26:53;100362.72;;;7.70;82.78
78800;BME280;68148;55.328;86.106;2023-10-13T05:29:19;100364.34;;;7.63;79.78
78800;BME280;68148;55.328;86.106;2023-10-13T05:31:47;100370.41;;;7.63;78.89
78800;BME280;68148;55.328;86.106;2023-10-13T05:34:13;100360.19;;;7.60;81.14
78800;BME280;68148;55.328;86.106;2023-10-13T05:36:39;100366.72;;;7.56;79.81
78800;BME280;68148;55.328;86.106;2023-10-13T05:39:07;100380.66;;;7.74;77.46
78800;BME280;68148;55.328;86.106;2023-10-13T05:41:33;100379.69;;;7.75;77.91
78800;BME280;68148;55.328;86.106;2023-10-13T05:43:59;100377.50;;;8.15;81.97
78800;BME280;68148;55.328;86.106;2023-10-13T05:46:25;100374.59;;;8.44;81.48
78800;BME280;68148;55.328;86.106;2023-10-13T05:48:51;100376.28;;;8.53;76.32
78800;BME280;68148;55.328;86.106;2023-10-13T05:51:17;100365.47;;;8.64;79.73
78800;BME280;68148;55.328;86.106;2023-10-13T05:53:43;100352.00;;;8.67;72.96
78800;BME280;68148;55.328;86.106;2023-10-13T05:56:09;100371.28;;;8.76;74.45
78800;BME280;68148;55.328;86.106;2023-10-13T05:58:35;100364.53;;;8.82;72.23
78800;BME280;68148;55.328;86.106;2023-10-13T06:01:01;100372.25;;;8.75;71.75
78800;BME280;68148;55.328;86.106;2023-10-13T06:03:27;100368.00;;;8.74;71.27
78800;BME280;68148;55.328;86.106;2023-10-13T06:05:53;100372.22;;;8.67;72.28
78800;BME280;68148;55.328;86.106;2023-10-13T06:08:18;100383.50;;;8.51;66.80
78800;BME280;68148;55.328;86.106;2023-10-13T06:10:44;100378.88;;;8.45;66.84
78800;BME280;68148;55.328;86.106;2023-10-13T06:13:10;100382.28;;;8.37;69.01
78800;BME280;68148;55.328;86.106;2023-10-13T06:15:36;100375.59;;;8.51;70.44
78800;BME280;68148;55.328;86.106;2023-10-13T06:18:03;100378.22;;;8.51;69.99
78800;BME280;68148;55.328;86.106;2023-10-13T06:20:29;100389.09;;;8.30;68.57
78800;BME280;68148;55.328;86.106;2023-10-13T06:22:56;100391.53;;;8.23;65.47
78800;BME280;68148;55.328;86.106;2023-10-13T06:25:22;100380.66;;;8.18;65.19
78800;BME280;68148;55.328;86.106;2023-10-13T06:27:47;100391.84;;;8.20;68.25
78800;BME280;68148;55.328;86.106;2023-10-13T06:30:15;100380.25;;;8.31;66.63
78800;BME280;68148;55.328;86.106;2023-10-13T06:32:43;100400.75;;;8.27;68.76
78800;BME280;68148;55.328;86.106;2023-10-13T06:35:09;100399.59;;;8.30;69.86
78800;BME280;68148;55.328;86.106;2023-10-13T06:37:35;100399.91;;;8.45;66.26
78800;BME280;68148;55.328;86.106;2023-10-13T06:40:08;100401.56;;;8.46;69.28
78800;BME280;68148;55.328;86.106;2023-10-13T06:42:34;100412.78;;;8.56;66.86
78800;BME280;68148;55.328;86.106;2023-10-13T06:45:01;100412.53;;;8.41;64.32
78800;BME280;68148;55.328;86.106;2023-10-13T06:47:27;100407.44;;;8.40;66.62
78800;BME280;68148;55.328;86.106;2023-10-13T06:49:52;100417.63;;;8.43;66.10
78800;BME280;68148;55.328;86.106;2023-10-13T06:52:18;100419.50;;;8.50;63.86
78800;BME280;68148;55.328;86.106;2023-10-13T06:54:44;100419.31;;;8.44;64.33
78800;BME280;68148;55.328;86.106;2023-10-13T06:57:10;100433.53;;;8.59;64.96
78800;BME280;68148;55.328;86.106;2023-10-13T06:59:36;100428.25;;;8.33;63.97
78800;BME280;68148;55.328;86.106;2023-10-13T07:02:02;100432.47;;;8.44;65.74
78800;BME280;68148;55.328;86.106;2023-10-13T07:04:28;100429.50;;;8.47;66.43
78800;BME280;68148;55.328;86.106;2023-10-13T07:06:54;100435.78;;;8.54;64.59
78800;BME280;68148;55.328;86.106;2023-10-13T07:09:20;100429.41;;;8.57;63.33
78800;BME280;68148;55.328;86.106;2023-10-13T07:11:46;100440.28;;;8.62;65.99
78800;BME280;68148;55.328;86.106;2023-10-13T07:14:12;100445.78;;;8.76;60.92
78800;BME280;68148;55.328;86.106;2023-10-13T07:16:59;100444.34;;;8.56;58.68
78800;BME280;68148;55.328;86.106;2023-10-13T07:19:26;100448.78;;;8.56;58.66
78800;BME280;68148;55.328;86.106;2023-10-13T07:21:52;100430.53;;;8.54;57.86
78800;BME280;68148;55.328;86.106;2023-10-13T07:24:18;100441.81;;;8.46;59.88
78800;BME280;68148;55.328;86.106;2023-10-13T07:26:43;100455.50;;;8.50;60.08
78800;BME280;68148;55.328;86.106;2023-10-13T07:29:10;100447.03;;;8.38;59.65
78800;BME280;68148;55.328;86.106;2023-10-13T07:31:36;100442.28;;;8.42;60.05
78800;BME280;68148;55.328;86.106;2023-10-13T07:34:02;100447.56;;;8.42;59.29
78800;BME280;68148;55.328;86.106;2023-10-13T07:36:28;100467.00;;;8.49;58.41
78800;BME280;68148;55.328;86.106;2023-10-13T07:38:54;100447.25;;;8.45;58.74
78800;BME280;68148;55.328;86.106;2023-10-13T07:41:20;100455.50;;;8.50;58.85
78800;BME280;68148;55.328;86.106;2023-10-13T07:43:45;100461.22;;;8.45;58.17
78800;BME280;68148;55.328;86.106;2023-10-13T07:46:11;100459.06;;;8.41;58.93
78800;BME280;68148;55.328;86.106;2023-10-13T07:48:37;100459.50;;;8.36;58.50
78800;BME280;68148;55.328;86.106;2023-10-13T07:51:05;100456.72;;;8.38;58.10
78800;BME280;68148;55.328;86.106;2023-10-13T07:53:32;100449.28;;;8.33;59.28
78800;BME280;68148;55.328;86.106;2023-10-13T07:55:57;100448.38;;;8.42;58.07
78800;BME280;68148;55.328;86.106;2023-10-13T07:58:24;100453.84;;;8.49;55.89
78800;BME280;68148;55.328;86.106;2023-10-13T08:00:49;100438.84;;;8.41;57.12
78800;BME280;68148;55.328;86.106;2023-10-13T08:03:15;100446.00;;;8.57;56.33
78800;BME280;68148;55.328;86.106;2023-10-13T08:05:45;100454.78;;;8.66;54.94
78800;BME280;68148;55.328;86.106;2023-10-13T08:08:17;100445.25;;;8.73;55.44
78800;BME280;68148;55.328;86.106;2023-10-13T08:10:42;100446.13;;;8.82;57.44
78800;BME280;68148;55.328;86.106;2023-10-13T08:13:08;100445.66;;;8.86;58.31
78800;BME280;68148;55.328;86.106;2023-10-13T08:15:34;100444.22;;;8.92;55.75
78800;BME280;68148;55.328;86.106;2023-10-13T08:18:00;100452.34;;;8.72;53.97
78800;BME280;68148;55.328;86.106;2023-10-13T08:20:25;100442.78;;;8.71;55.17
78800;BME280;68148;55.328;86.106;2023-10-13T08:22:51;100445.00;;;8.84;54.38
78800;BME280;68148;55.328;86.106;2023-10-13T08:25:17;100444.09;;;9.01;55.24
78800;BME280;68148;55.328;86.106;2023-10-13T08:27:43;100429.31;;;9.09;53.69
78800;BME280;68148;55.328;86.106;2023-10-13T08:30:09;100431.16;;;9.24;53.02
78800;BME280;68148;55.328;86.106;2023-10-13T08:32:35;100431.19;;;9.41;50.66
78800;BME280;68148;55.328;86.106;2023-10-13T08:35:02;100428.09;;;9.53;52.25
78800;BME280;68148;55.328;86.106;2023-10-13T08:37:30;100434.88;;;9.72;52.44
78800;BME280;68148;55.328;86.106;2023-10-13T08:39:57;100431.06;;;9.75;52.22
78800;BME280;68148;55.328;86.106;2023-10-13T08:42:34;100435.22;;;9.86;53.43
78800;BME280;68148;55.328;86.106;2023-10-13T08:45:02;100432.72;;;9.76;50.41
78800;BME280;68148;55.328;86.106;2023-10-13T08:47:34;100430.56;;;9.47;52.64
78800;BME280;68148;55.328;86.106;2023-10-13T08:50:03;100430.22;;;9.34;50.75
78800;BME280;68148;55.328;86.106;2023-10-13T08:52:30;100437.63;;;9.38;51.93
78800;BME280;68148;55.328;86.106;2023-10-13T08:54:56;100444.84;;;9.36;52.15
78800;BME280;68148;55.328;86.106;2023-10-13T08:57:22;100438.38;;;9.14;50.93
78800;BME280;68148;55.328;86.106;2023-10-13T08:59:48;100443.06;;;8.94;49.68
78800;BME280;68148;55.328;86.106;2023-10-13T09:02:14;100450.13;;;8.94;51.59
78800;BME280;68148;55.328;86.106;2023-10-13T09:04:42;100446.69;;;8.93;49.83
78800;BME280;68148;55.328;86.106;2023-10-13T09:07:08;100455.56;;;8.92;51.91
78800;BME280;68148;55.328;86.106;2023-10-13T09:12:15;100456.19;;;8.86;52.65
78800;BME280;68148;55.328;86.106;2023-10-13T09:14:42;100464.72;;;8.80;53.63
78800;BME280;68148;55.328;86.106;2023-10-13T09:17:08;100464.53;;;8.82;54.50
78800;BME280;68148;55.328;86.106;2023-10-13T09:19:53;100459.63;;;8.78;53.61
78800;BME280;68148;55.328;86.106;2023-10-13T09:22:26;100465.81;;;8.69;54.42
78800;BME280;68148;55.328;86.106;2023-10-13T09:24:59;100470.06;;;8.62;54.42
78800;BME280;68148;55.328;86.106;2023-10-13T09:27:30;100471.13;;;8.51;53.86
78800;BME280;68148;55.328;86.106;2023-10-13T09:29:57;100462.97;;;8.63;54.70
78800;BME280;68148;55.328;86.106;2023-10-13T09:32:23;100464.97;;;8.69;53.36
78800;BME280;68148;55.328;86.106;2023-10-13T09:34:49;100470.16;;;8.78;52.95
78800;BME280;68148;55.328;86.106;2023-10-13T09:37:15;100467.97;;;8.74;53.01
78800;BME280;68148;55.328;86.106;2023-10-13T09:39:41;100471.97;;;8.86;53.21
78800;BME280;68148;55.328;86.106;2023-10-13T09:42:08;100475.63;;;8.93;53.85
78800;BME280;68148;55.328;86.106;2023-10-13T09:44:34;100467.47;;;9.05;54.28
78800;BME280;68148;55.328;86.106;2023-10-13T09:47:01;100463.38;;;9.10;54.13
78800;BME280;68148;55.328;86.106;2023-10-13T09:49:29;100471.00;;;9.21;54.63
78800;BME280;68148;55.328;86.106;2023-10-13T09:51:57;100479.50;;;9.15;54.18
78800;BME280;68148;55.328;86.106;2023-10-13T09:54:34;100481.16;;;9.08;52.23
78800;BME280;68148;55.328;86.106;2023-10-13T09:57:10;100478.97;;;9.03;51.88
78800;BME280;68148;55.328;86.106;2023-10-13T09:59:44;100487.84;;;9.02;53.07
78800;BME280;68148;55.328;86.106;2023-10-13T10:02:12;100490.47;;;9.02;53.71
78800;BME280;68148;55.328;86.106;2023-10-13T10:04:38;100486.69;;;8.97;52.63
78800;BME280;68148;55.328;86.106;2023-10-13T10:07:03;100491.25;;;8.95;54.41
78800;BME280;68148;55.328;86.106;2023-10-13T10:09:31;100489.28;;;8.89;54.41
78800;BME280;68148;55.328;86.106;2023-10-13T10:17:23;100497.59;;;8.76;55.35
78800;BME280;68148;55.328;86.106;2023-10-13T10:19:51;100495.88;;;8.67;55.05
78800;BME280;68148;55.328;86.106;2023-10-13T10:22:30;100485.38;;;8.67;54.80
78800;BME280;68148;55.328;86.106;2023-10-13T10:24:57;100499.97;;;8.61;54.94
78800;BME280;68148;55.328;86.106;2023-10-13T10:27:31;100493.22;;;8.59;54.69
78800;BME280;68148;55.328;86.106;2023-10-13T10:29:57;100489.91;;;8.57;54.93
78800;BME280;68148;55.328;86.106;2023-10-13T10:32:36;100491.69;;;8.56;55.09
78800;BME280;68148;55.328;86.106;2023-10-13T10:37:33;100495.47;;;8.53;55.37
78800;BME280;68148;55.328;86.106;2023-10-13T10:40:00;100496.31;;;8.54;57.28
78800;BME280;68148;55.328;86.106;2023-10-13T10:42:27;100491.94;;;8.97;58.86
78800;BME280;68148;55.328;86.106;2023-10-13T10:44:53;100495.28;;;9.07;58.41
78800;BME280;68148;55.328;86.106;2023-10-13T10:47:20;100493.06;;;8.94;56.15
78800;BME280;68148;55.328;86.106;2023-10-13T10:49:46;100494.44;;;8.72;55.46
78800;BME280;68148;55.328;86.106;2023-10-13T10:52:12;100496.47;;;8.52;56.44
78800;BME280;68148;55.328;86.106;2023-10-13T10:54:42;100494.25;;;8.40;54.53
78800;BME280;68148;55.328;86.106;2023-10-13T10:57:07;100501.22;;;8.31;55.72
78800;BME280;68148;55.328;86.106;2023-10-13T10:59:37;100497.16;;;8.19;56.11
78800;BME280;68148;55.328;86.106;2023-10-13T11:02:03;100502.66;;;8.08;56.29
78800;BME280;68148;55.328;86.106;2023-10-13T11:04:29;100497.47;;;7.98;56.84
78800;BME280;68148;55.328;86.106;2023-10-13T11:06:56;100492.16;;;7.90;56.66
78800;BME280;68148;55.328;86.106;2023-10-13T11:11:52;100504.13;;;7.74;57.75
78800;BME280;68148;55.328;86.106;2023-10-13T11:14:26;100500.75;;;7.64;58.16
78800;BME280;68148;55.328;86.106;2023-10-13T11:16:54;100501.66;;;7.55;58.70
78800;BME280;68148;55.328;86.106;2023-10-13T11:19:36;100497.28;;;7.46;59.23
78800;BME280;68148;55.328;86.106;2023-10-13T11:22:17;100512.78;;;7.39;59.58
78800;BME280;68148;55.328;86.106;2023-10-13T11:24:43;100504.69;;;7.33;59.46
78800;BME280;68148;55.328;86.106;2023-10-13T11:27:15;100502.78;;;7.25;60.26
78800;BME280;68148;55.328;86.106;2023-10-13T11:29:41;100506.13;;;7.17;60.59
78800;BME280;68148;55.328;86.106;2023-10-13T11:32:07;100506.03;;;7.09;60.65
78800;BME280;68148;55.328;86.106;2023-10-13T11:34:32;100505.81;;;7.02;61.54
78800;BME280;68148;55.328;86.106;2023-10-13T11:36:58;100508.00;;;6.97;61.05
78800;BME280;68148;55.328;86.106;2023-10-13T11:39:25;100520.88;;;6.91;61.26
78800;BME280;68148;55.328;86.106;2023-10-13T11:41:52;100517.19;;;6.84;62.24
78800;BME280;68148;55.328;86.106;2023-10-13T11:44:18;100523.81;;;6.78;62.35
78800;BME280;68148;55.328;86.106;2023-10-13T11:46:43;100527.69;;;6.74;63.12
78800;BME280;68148;55.328;86.106;2023-10-13T11:49:10;100529.94;;;6.69;63.53
78800;BME280;68148;55.328;86.106;2023-10-13T11:51:36;100532.16;;;6.64;64.47
78800;BME280;68148;55.328;86.106;2023-10-13T11:54:02;100531.59;;;6.60;63.93
78800;BME280;68148;55.328;86.106;2023-10-13T11:56:28;100533.69;;;6.57;65.13
78800;BME280;68148;55.328;86.106;2023-10-13T11:58:53;100544.59;;;6.52;65.42
78800;BME280;68148;55.328;86.106;2023-10-13T12:01:19;100546.66;;;6.48;66.55
78800;BME280;68148;55.328;86.106;2023-10-13T12:03:49;100541.00;;;6.43;66.95
78800;BME280;68148;55.328;86.106;2023-10-13T12:06:14;100547.19;;;6.42;67.67
78800;BME280;68148;55.328;86.106;2023-10-13T12:08:40;100549.16;;;6.40;66.96
78800;BME280;68148;55.328;86.106;2023-10-13T12:11:06;100549.41;;;6.37;68.40
78800;BME280;68148;55.328;86.106;2023-10-13T12:13:31;100554.97;;;6.34;69.98
78800;BME280;68148;55.328;86.106;2023-10-13T12:15:57;100556.31;;;6.28;68.95
78800;BME280;68148;55.328;86.106;2023-10-13T12:18:23;100554.94;;;6.24;67.82
78800;BME280;68148;55.328;86.106;2023-10-13T12:20:48;100555.34;;;6.20;70.17
78800;BME280;68148;55.328;86.106;2023-10-13T12:23:14;100558.94;;;6.19;69.35
78800;BME280;68148;55.328;86.106;2023-10-13T12:25:40;100562.66;;;6.16;70.42
78800;BME280;68148;55.328;86.106;2023-10-13T12:28:05;100561.28;;;6.12;71.00
78800;BME280;68148;55.328;86.106;2023-10-13T12:30:31;100562.53;;;6.08;71.35
78800;BME280;68148;55.328;86.106;2023-10-13T12:32:58;100561.97;;;6.05;71.58
78800;BME280;68148;55.328;86.106;2023-10-13T12:35:25;100559.78;;;6.00;74.59
78800;BME280;68148;55.328;86.106;2023-10-13T12:37:51;100565.13;;;5.98;74.11
78800;BME280;68148;55.328;86.106;2023-10-13T12:40:19;100568.88;;;5.96;74.97
78800;BME280;68148;55.328;86.106;2023-10-13T12:42:45;100562.09;;;5.93;75.17
78800;BME280;68148;55.328;86.106;2023-10-13T12:45:11;100570.34;;;5.89;75.55
78800;BME280;68148;55.328;86.106;2023-10-13T12:47:39;100574.91;;;5.87;77.84
78800;BME280;68148;55.328;86.106;2023-10-13T12:50:07;100574.34;;;5.83;77.91
78800;BME280;68148;55.328;86.106;2023-10-13T12:52:35;100584.25;;;5.80;78.37
78800;BME280;68148;55.328;86.106;2023-10-13T12:55:02;100573.06;;;5.77;78.66
78800;BME280;68148;55.328;86.106;2023-10-13T12:57:37;100574.28;;;5.73;78.07
78800;BME280;68148;55.328;86.106;2023-10-13T13:00:06;100570.16;;;5.71;79.53
78800;BME280;68148;55.328;86.106;2023-10-13T13:02:32;100579.81;;;5.70;79.85